createdAt,value
2019-03-31T00:02:26.086Z,87.50
2019-03-31T00:05:15.432Z,80.90
2019-03-31T00:08:04.598Z,85.10
2019-03-31T00:10:53.762Z,65.50
2019-03-31T00:13:43.340Z,71.95
2019-03-31T00:16:32.419Z,74.15
2019-03-31T00:19:21.803Z,68.55
2019-03-31T00:22:10.678Z,72.25
2019-03-31T00:25:00.001Z,74.12
2019-03-31T00:27:49.299Z,65.67
2019-03-31T00:30:38.253Z,72.20
2019-03-31T00:33:27.700Z,54.18
2019-03-31T00:36:17.160Z,58.08
2019-03-31T00:39:08.932Z,55.58
2019-03-31T00:41:57.626Z,59.90
2019-03-31T00:44:47.017Z,50.88
2019-03-31T00:47:37.045Z,51.33
2019-03-31T00:50:26.299Z,40.38
2019-03-31T00:53:15.683Z,49.05
2019-03-31T00:56:04.914Z,42.62
2019-03-31T00:58:54.273Z,43.25
2019-03-31T01:01:48.620Z,43.95
2019-03-31T01:04:37.956Z,30.13
2019-03-31T01:07:28.060Z,34.78
2019-03-31T01:10:16.954Z,36.75
2019-03-31T01:13:07.109Z,49.95
2019-03-31T01:15:58.491Z,32.63
2019-03-31T01:18:48.106Z,35.97
2019-03-31T01:21:37.272Z,33.42
2019-03-31T01:24:26.629Z,32.48
2019-03-31T01:27:17.698Z,35.70
2019-03-31T01:30:10.034Z,34.35
2019-03-31T01:32:59.776Z,36.10
2019-03-31T01:35:49.239Z,24.30
2019-03-31T01:38:38.775Z,20.75
2019-03-31T01:41:27.931Z,23.67
2019-03-31T01:44:17.080Z,29.87
2019-03-31T01:47:07.604Z,27.73
2019-03-31T01:49:57.138Z,36.50
2019-03-31T01:52:46.303Z,27.25
2019-03-31T01:55:34.984Z,28.27
2019-03-31T01:58:24.132Z,24.55
2019-03-31T02:01:14.742Z,26.77
2019-03-31T02:04:03.892Z,29.35
2019-03-31T02:06:52.904Z,28.25
2019-03-31T02:09:42.231Z,24.50
2019-03-31T02:12:31.594Z,24.07
2019-03-31T02:15:21.292Z,34.83
2019-03-31T02:18:10.196Z,23.23
2019-03-31T02:20:59.402Z,22.62
2019-03-31T02:23:48.543Z,21.65
2019-03-31T02:26:37.839Z,27.10
2019-03-31T02:29:27.265Z,26.63
2019-03-31T02:32:24.195Z,22.97
2019-03-31T02:35:07.915Z,24.98
2019-03-31T02:37:56.366Z,27.07
2019-03-31T02:40:45.316Z,28.47
2019-03-31T02:43:34.141Z,22.32
2019-03-31T02:46:23.349Z,24.55
2019-03-31T02:49:12.624Z,22.17
2019-03-31T02:52:02.102Z,24.98
2019-03-31T02:54:51.293Z,28.42
2019-03-31T02:57:41.659Z,22.65
2019-03-31T03:00:31.410Z,20.95
2019-03-31T03:03:21.115Z,22.32
2019-03-31T03:06:13.149Z,36.73
2019-03-31T03:09:05.755Z,20.00
2019-03-31T03:11:56.815Z,35.55
2019-03-31T03:14:48.960Z,20.45
2019-03-31T03:17:38.622Z,26.87
2019-03-31T03:20:27.533Z,19.17
2019-03-31T03:23:16.852Z,18.47
2019-03-31T03:26:05.663Z,16.20
2019-03-31T03:28:54.984Z,15.88
2019-03-31T03:31:43.804Z,20.68
2019-03-31T03:34:34.106Z,21.50
2019-03-31T03:37:23.578Z,15.20
2019-03-31T03:40:12.284Z,10.35
2019-03-31T03:43:01.649Z,15.55
2019-03-31T03:45:50.962Z,14.47
2019-03-31T03:48:40.482Z,10.73
2019-03-31T03:51:29.666Z,21.48
2019-03-31T03:54:18.819Z,18.02
2019-03-31T03:57:08.054Z,14.78
2019-03-31T03:59:57.350Z,19.98
2019-03-31T04:02:46.060Z,15.60
2019-03-31T04:05:35.075Z,13.98
2019-03-31T04:08:24.464Z,10.10
2019-03-31T04:11:21.551Z,9.63
2019-03-31T04:14:11.507Z,12.28
2019-03-31T04:17:00.567Z,8.63
2019-03-31T04:19:50.642Z,9.25
2019-03-31T04:22:39.385Z,8.33
2019-03-31T04:25:28.774Z,9.63
2019-03-31T04:28:17.896Z,9.35
2019-03-31T04:31:07.034Z,13.38
2019-03-31T04:33:56.471Z,7.12
2019-03-31T04:36:45.435Z,7.87
2019-03-31T04:39:34.221Z,4.83
2019-03-31T04:42:23.458Z,6.78
2019-03-31T04:45:13.047Z,8.53
2019-03-31T04:48:02.308Z,10.23
2019-03-31T04:50:52.227Z,9.65
2019-03-31T04:53:42.023Z,6.47
2019-03-31T04:56:31.659Z,8.48
2019-03-31T04:59:20.547Z,12.70
2019-03-31T05:02:09.590Z,3.17
2019-03-31T05:04:58.380Z,11.97
2019-03-31T05:07:47.912Z,12.05
2019-03-31T05:10:37.254Z,6.35
2019-03-31T05:13:26.821Z,8.58
2019-03-31T05:16:15.600Z,19.17
2019-03-31T05:19:04.635Z,12.40
2019-03-31T05:21:53.737Z,8.38
2019-03-31T05:24:43.066Z,6.35
2019-03-31T05:27:32.194Z,6.15
2019-03-31T05:30:21.016Z,11.00
2019-03-31T05:33:10.104Z,5.90
2019-03-31T05:35:59.164Z,9.20
2019-03-31T05:38:48.749Z,7.70
2019-03-31T05:41:38.194Z,9.13
2019-03-31T05:44:27.896Z,3.37
2019-03-31T05:47:16.634Z,11.35
2019-03-31T05:50:07.700Z,10.50
2019-03-31T05:52:56.411Z,14.35
2019-03-31T05:55:45.444Z,12.07
2019-03-31T05:58:34.512Z,15.65
2019-03-31T06:01:23.924Z,23.38
2019-03-31T06:04:12.870Z,9.25
2019-03-31T06:07:02.154Z,8.33
2019-03-31T06:09:50.990Z,9.00
2019-03-31T06:18:16.684Z,10.40
2019-03-31T06:29:31.726Z,8.60
2019-03-31T06:46:24.940Z,13.15
2019-03-31T06:49:14.136Z,15.18
2019-03-31T06:52:03.005Z,13.63
2019-03-31T06:54:52.569Z,19.30
2019-03-31T06:57:41.940Z,9.30
2019-03-31T07:00:30.630Z,22.98
2019-03-31T07:03:19.993Z,12.80
2019-03-31T07:08:57.902Z,11.90
2019-03-31T07:11:47.092Z,14.20
2019-03-31T07:14:36.340Z,15.03
2019-03-31T07:17:25.759Z,25.10
2019-03-31T07:20:16.830Z,17.23
2019-03-31T07:23:05.504Z,11.00
2019-03-31T07:25:54.334Z,22.20
2019-03-31T07:28:43.628Z,24.37
2019-03-31T07:31:33.121Z,8.73
2019-03-31T07:34:25.650Z,17.25
2019-03-31T07:37:13.565Z,15.72
2019-03-31T07:40:03.109Z,13.88
2019-03-31T07:42:51.979Z,15.43
2019-03-31T07:45:41.183Z,16.90
2019-03-31T07:48:30.245Z,22.20
2019-03-31T07:51:19.913Z,71.77
2019-03-31T07:54:09.157Z,19.60
2019-03-31T07:56:58.750Z,17.27
2019-03-31T07:59:47.269Z,71.30
2019-03-31T08:02:36.575Z,14.20
2019-03-31T08:05:32.861Z,15.00
2019-03-31T08:08:15.842Z,18.27
2019-03-31T08:11:05.214Z,11.43
2019-03-31T08:13:55.392Z,9.63
2019-03-31T08:16:45.281Z,15.70
2019-03-31T08:19:34.644Z,10.53
2019-03-31T08:22:24.223Z,8.68
2019-03-31T08:25:16.141Z,7.90
2019-03-31T08:28:05.218Z,19.05
2019-03-31T08:36:31.197Z,2.92
2019-03-31T08:39:20.260Z,8.30
2019-03-31T08:42:09.738Z,11.80
2019-03-31T08:44:58.661Z,5.93
2019-03-31T08:47:48.160Z,6.20
2019-03-31T08:50:37.155Z,6.85
2019-03-31T08:53:26.196Z,8.55
2019-03-31T08:56:15.049Z,8.33
2019-03-31T08:59:04.149Z,17.73
2019-03-31T09:01:53.799Z,11.28
2019-03-31T09:04:43.249Z,9.98
2019-03-31T09:07:32.410Z,10.43
2019-03-31T09:10:21.440Z,9.55
2019-03-31T09:13:10.766Z,17.37
2019-03-31T09:15:59.825Z,7.40
2019-03-31T09:18:49.282Z,6.70
2019-03-31T09:52:30.136Z,9.40
2019-03-31T09:55:22.856Z,4.93
2019-03-31T09:58:09.876Z,6.40
2019-03-31T10:00:59.107Z,3.65
2019-03-31T10:15:00.991Z,6.80
2019-03-31T10:20:38.086Z,6.25
2019-03-31T10:23:27.454Z,8.00
2019-03-31T10:26:31.070Z,9.53
2019-03-31T10:29:07.937Z,9.20
2019-03-31T10:37:34.620Z,12.15
2019-03-31T10:40:23.664Z,5.85
2019-03-31T10:43:12.651Z,7.42
2019-03-31T10:46:01.963Z,5.22
2019-03-31T10:48:51.667Z,6.42
2019-03-31T10:51:41.129Z,9.13
2019-03-31T10:54:29.824Z,14.63
2019-03-31T10:57:19.199Z,7.33
2019-03-31T11:00:14.632Z,7.08
2019-03-31T11:03:04.834Z,9.35
2019-03-31T11:05:53.582Z,13.90
2019-03-31T20:39:56.087Z,12.07
2019-03-31T21:30:28.575Z,7.92
2019-03-31T21:33:17.475Z,5.20
2019-03-31T21:36:06.699Z,14.38
2019-03-31T21:38:55.587Z,11.30
2019-03-31T21:41:44.421Z,31.52
2019-03-31T21:44:34.004Z,9.23
2019-03-31T21:47:22.513Z,27.15
2019-03-31T21:50:12.431Z,14.28
2019-03-31T21:53:01.430Z,9.00
2019-03-31T21:55:50.667Z,11.68
2019-03-31T21:58:40.218Z,6.35
2019-03-31T22:01:30.953Z,15.18
2019-03-31T22:04:20.118Z,7.78
2019-03-31T22:07:08.866Z,10.00
2019-03-31T22:09:58.340Z,6.95
2019-03-31T22:12:47.393Z,11.22
2019-03-31T22:15:36.254Z,10.80
2019-03-31T22:18:25.760Z,19.65
2019-03-31T22:21:15.426Z,5.90
2019-03-31T22:24:04.214Z,3.05
2019-03-31T22:26:53.751Z,3.83
2019-03-31T22:29:43.043Z,10.13
2019-03-31T22:32:32.189Z,13.60
2019-03-31T22:35:21.259Z,13.40
2019-03-31T22:38:10.216Z,7.62
2019-03-31T22:40:59.906Z,7.87
2019-03-31T22:43:50.406Z,4.58
2019-03-31T22:46:53.408Z,6.67
2019-03-31T22:49:30.253Z,9.63
2019-03-31T22:52:19.751Z,8.28
2019-03-31T22:55:09.435Z,7.85
2019-03-31T23:03:35.128Z,7.00
2019-03-31T23:23:13.526Z,3.27
2019-03-31T23:26:02.591Z,11.05
2019-03-31T23:28:51.845Z,12.35
2019-03-31T23:31:40.738Z,8.50
2019-03-31T23:34:30.088Z,7.62
2019-03-31T23:37:19.039Z,8.80
2019-03-31T23:40:08.934Z,7.15
2019-03-31T23:42:58.177Z,5.70
2019-03-31T23:45:47.974Z,13.40
2019-03-31T23:48:36.477Z,3.72
2019-03-31T23:51:25.903Z,13.25
2019-03-31T23:54:15.362Z,3.37
2019-03-31T23:57:04.759Z,3.30
2019-03-31T23:59:53.444Z,8.35
